createdAt,value
2023-04-09T00:01:53.450Z,7.94
2023-04-09T00:02:53.631Z,7.85
2023-04-09T00:04:57.904Z,7.94
2023-04-09T00:05:57.841Z,7.85
2023-04-09T00:06:57.844Z,7.90
2023-04-09T00:07:57.848Z,7.88
2023-04-09T00:08:57.846Z,7.85
2023-04-09T00:09:57.831Z,7.79
2023-04-09T00:10:57.814Z,7.75
2023-04-09T00:11:57.808Z,7.87
2023-04-09T00:12:57.822Z,7.77
2023-04-09T00:13:57.806Z,7.82
2023-04-09T00:14:57.789Z,7.76
2023-04-09T00:15:57.817Z,7.75
2023-04-09T00:16:57.783Z,7.72
2023-04-09T00:17:57.838Z,7.61
2023-04-09T00:18:57.761Z,7.61
2023-04-09T00:19:57.755Z,7.66
2023-04-09T00:20:57.770Z,7.67
2023-04-09T00:21:57.748Z,7.61
2023-04-09T00:22:57.744Z,7.61
2023-04-09T00:23:57.742Z,7.57
2023-04-09T00:24:57.724Z,7.50
2023-04-09T00:25:57.723Z,7.56
2023-04-09T00:26:57.712Z,7.53
2023-04-09T00:27:57.705Z,7.54
2023-04-09T00:28:57.701Z,7.58
2023-04-09T00:29:57.692Z,7.56
2023-04-09T00:30:57.717Z,7.57
2023-04-09T00:31:57.750Z,7.54
2023-04-09T00:32:57.724Z,7.51
2023-04-09T00:33:57.708Z,7.54
2023-04-09T00:34:57.669Z,7.51
2023-04-09T00:35:57.691Z,7.45
2023-04-09T00:36:57.646Z,7.47
2023-04-09T00:37:57.656Z,7.45
2023-04-09T00:38:57.653Z,7.40
2023-04-09T00:39:57.644Z,7.43
2023-04-09T00:40:57.624Z,7.45
2023-04-09T00:41:57.629Z,7.48
2023-04-09T00:42:57.621Z,7.43
2023-04-09T00:43:57.617Z,7.48
2023-04-09T00:44:57.606Z,7.40
2023-04-09T00:45:57.626Z,7.47
2023-04-09T00:46:57.616Z,7.40
2023-04-09T00:47:57.591Z,7.43
2023-04-09T00:48:57.573Z,7.43
2023-04-09T00:49:57.570Z,7.43
2023-04-09T00:50:57.568Z,7.40
2023-04-09T00:51:57.566Z,7.38
2023-04-09T00:52:57.547Z,7.40
2023-04-09T00:53:57.542Z,7.47
2023-04-09T00:54:57.554Z,7.40
2023-04-09T00:55:57.546Z,7.45
2023-04-09T00:56:57.512Z,7.39
2023-04-09T00:57:57.518Z,7.45
2023-04-09T00:58:57.498Z,7.40
2023-04-09T00:59:57.510Z,7.38
2023-04-09T01:00:57.590Z,7.33
2023-04-09T01:01:57.669Z,7.42
2023-04-09T01:02:57.627Z,7.42
2023-04-09T01:03:57.482Z,7.45
2023-04-09T01:04:57.492Z,7.35
2023-04-09T01:05:57.500Z,7.36
2023-04-09T01:06:57.466Z,7.32
2023-04-09T01:07:57.454Z,7.25
2023-04-09T01:08:57.445Z,7.29
2023-04-09T01:09:57.430Z,7.33
2023-04-09T01:10:57.445Z,7.20
2023-04-09T01:11:57.431Z,7.24
2023-04-09T01:12:57.414Z,7.20
2023-04-09T01:13:57.483Z,7.17
2023-04-09T01:14:57.394Z,7.24
2023-04-09T01:15:57.389Z,7.15
2023-04-09T01:16:57.407Z,7.21
2023-04-09T01:17:57.403Z,7.18
2023-04-09T01:18:57.361Z,7.28
2023-04-09T01:19:57.361Z,7.18
2023-04-09T01:20:57.363Z,7.14
2023-04-09T01:21:57.361Z,7.20
2023-04-09T01:22:57.348Z,7.15
2023-04-09T01:23:57.336Z,7.25
2023-04-09T01:24:57.336Z,7.18
2023-04-09T01:25:57.306Z,7.20
2023-04-09T01:26:57.332Z,7.13
2023-04-09T01:27:57.307Z,7.15
2023-04-09T01:28:57.296Z,7.17
2023-04-09T01:29:57.298Z,7.15
2023-04-09T01:30:57.313Z,7.15
2023-04-09T01:31:57.271Z,7.11
2023-04-09T01:32:57.293Z,7.17
2023-04-09T01:33:57.260Z,7.13
2023-04-09T01:34:57.256Z,7.15
2023-04-09T01:35:57.277Z,7.14
2023-04-09T01:36:57.281Z,7.13
2023-04-09T01:37:57.238Z,7.20
2023-04-09T01:38:57.248Z,7.14
2023-04-09T01:39:57.232Z,7.15
2023-04-09T01:40:57.210Z,7.13
2023-04-09T01:41:57.216Z,7.03
2023-04-09T01:42:57.205Z,7.07
2023-04-09T01:43:57.227Z,6.95
2023-04-09T01:44:57.197Z,7.00
2023-04-09T01:45:57.202Z,7.03
2023-04-09T01:46:57.171Z,7.00
2023-04-09T01:47:57.257Z,7.00
2023-04-09T01:48:57.172Z,6.96
2023-04-09T01:49:57.169Z,6.96
2023-04-09T01:50:57.144Z,6.97
2023-04-09T01:51:57.151Z,7.00
2023-04-09T01:52:57.144Z,7.06
2023-04-09T01:53:57.128Z,7.00
2023-04-09T01:54:57.123Z,7.00
2023-04-09T01:55:57.129Z,6.95
2023-04-09T01:56:57.104Z,6.95
2023-04-09T01:57:57.094Z,6.97
2023-04-09T01:58:57.118Z,6.89
2023-04-09T01:59:57.126Z,7.02
2023-04-09T02:00:57.111Z,6.88
2023-04-09T02:01:57.307Z,6.93
2023-04-09T02:02:57.125Z,7.00
2023-04-09T02:03:57.159Z,6.96
2023-04-09T02:04:57.066Z,7.03
2023-04-09T02:05:57.037Z,6.97
2023-04-09T02:06:57.035Z,7.00
2023-04-09T02:07:57.040Z,6.97
2023-04-09T02:08:57.030Z,6.93
2023-04-09T02:09:57.036Z,6.89
2023-04-09T02:10:57.018Z,6.85
2023-04-09T02:11:57.043Z,6.85
2023-04-09T02:12:56.993Z,6.82
2023-04-09T02:13:57.017Z,6.82
2023-04-09T02:14:56.984Z,6.92
2023-04-09T02:15:57.039Z,6.82
2023-04-09T02:16:56.971Z,6.82
2023-04-09T02:17:56.995Z,6.84
2023-04-09T02:18:56.972Z,6.89
2023-04-09T02:19:56.944Z,6.88
2023-04-09T02:20:56.937Z,6.87
2023-04-09T02:21:56.932Z,6.81
2023-04-09T02:22:56.935Z,6.84
2023-04-09T02:23:56.920Z,6.79
2023-04-09T02:24:56.911Z,6.75
2023-04-09T02:25:56.925Z,6.69
2023-04-09T02:26:56.885Z,6.75
2023-04-09T02:27:56.890Z,6.72
2023-04-09T02:28:56.881Z,6.67
2023-04-09T02:29:56.884Z,6.78
2023-04-09T02:30:56.890Z,6.69
2023-04-09T02:31:56.910Z,6.77
2023-04-09T02:32:56.905Z,6.70
2023-04-09T02:33:56.852Z,6.67
2023-04-09T02:34:56.847Z,6.66
2023-04-09T02:35:56.841Z,6.70
2023-04-09T02:36:56.814Z,6.72
2023-04-09T02:37:56.824Z,6.72
2023-04-09T02:38:56.810Z,6.77
2023-04-09T02:39:56.799Z,6.72
2023-04-09T02:40:56.804Z,6.77
2023-04-09T02:41:56.795Z,6.75
2023-04-09T02:42:56.769Z,6.64
2023-04-09T02:43:56.769Z,6.60
2023-04-09T02:44:56.760Z,6.56
2023-04-09T02:45:56.784Z,6.64
2023-04-09T02:46:56.745Z,6.72
2023-04-09T02:47:56.801Z,6.69
2023-04-09T02:48:56.748Z,6.62
2023-04-09T02:49:56.726Z,6.69
2023-04-09T02:50:56.719Z,6.72
2023-04-09T02:51:56.716Z,6.60
2023-04-09T02:52:56.704Z,6.72
2023-04-09T02:53:56.697Z,6.64
2023-04-09T02:54:56.700Z,6.60
2023-04-09T02:55:56.686Z,6.62
2023-04-09T02:56:56.681Z,6.62
2023-04-09T02:57:56.670Z,6.62
2023-04-09T02:58:56.681Z,6.74
2023-04-09T02:59:56.654Z,6.67
2023-04-09T03:00:56.648Z,6.60
2023-04-09T03:01:56.716Z,6.66
2023-04-09T03:02:56.759Z,6.69
2023-04-09T03:03:56.746Z,6.64
2023-04-09T03:04:56.620Z,6.66
2023-04-09T03:05:56.615Z,6.62
2023-04-09T03:06:56.615Z,6.59
2023-04-09T03:07:56.631Z,6.64
2023-04-09T03:08:56.601Z,6.60
2023-04-09T03:09:56.606Z,6.60
2023-04-09T03:10:56.575Z,6.63
2023-04-09T03:11:56.575Z,6.56
2023-04-09T03:12:56.580Z,6.56
2023-04-09T03:13:56.569Z,6.57
2023-04-09T03:14:56.564Z,6.62
2023-04-09T03:15:56.566Z,6.57
2023-04-09T03:16:56.543Z,6.64
2023-04-09T03:17:56.559Z,6.62
2023-04-09T03:18:56.557Z,6.62
2023-04-09T03:19:56.512Z,6.60
2023-04-09T03:20:56.520Z,6.60
2023-04-09T03:21:56.529Z,6.59
2023-04-09T03:22:56.503Z,6.56
2023-04-09T03:23:56.501Z,6.54
2023-04-09T03:24:56.492Z,6.48
2023-04-09T03:25:56.489Z,6.46
2023-04-09T03:26:56.466Z,6.42
2023-04-09T03:27:56.481Z,6.42
2023-04-09T03:28:56.454Z,6.48
2023-04-09T03:29:56.464Z,6.48
2023-04-09T03:30:56.452Z,6.45
2023-04-09T03:31:56.440Z,6.46
2023-04-09T03:32:56.494Z,6.48
2023-04-09T03:33:56.454Z,6.42
2023-04-09T03:34:56.426Z,6.45
2023-04-09T03:35:56.417Z,6.46
2023-04-09T03:36:56.422Z,6.41
2023-04-09T03:37:56.400Z,6.42
2023-04-09T03:38:56.400Z,6.46
2023-04-09T03:39:56.397Z,6.41
2023-04-09T03:40:56.388Z,6.39
2023-04-09T03:41:56.361Z,6.39
2023-04-09T03:42:56.359Z,6.45
2023-04-09T03:43:56.353Z,6.45
2023-04-09T03:44:56.341Z,6.38
2023-04-09T03:45:56.346Z,6.48
2023-04-09T03:46:56.370Z,6.42
2023-04-09T03:47:57.919Z,6.45
2023-04-09T03:48:56.317Z,6.46
2023-04-09T03:49:56.317Z,6.38
2023-04-09T03:50:56.323Z,6.41
2023-04-09T03:51:56.301Z,6.44
2023-04-09T03:52:56.280Z,6.38
2023-04-09T03:53:56.273Z,6.39
2023-04-09T03:54:56.261Z,6.36
2023-04-09T03:55:56.255Z,6.31
2023-04-09T03:56:56.257Z,6.38
2023-04-09T03:57:56.253Z,6.35
2023-04-09T03:58:56.249Z,6.42
2023-04-09T03:59:56.266Z,6.31
2023-04-09T04:00:56.255Z,6.39
2023-04-09T04:01:56.261Z,6.45
2023-04-09T04:02:56.440Z,6.38
2023-04-09T04:03:56.295Z,6.36
2023-04-09T04:04:56.214Z,6.45
2023-04-09T04:05:56.185Z,6.42
2023-04-09T04:06:56.173Z,6.46
2023-04-09T04:07:56.185Z,6.46
2023-04-09T04:08:56.170Z,6.48
2023-04-09T04:09:56.215Z,6.42
2023-04-09T04:10:56.149Z,6.39
2023-04-09T04:11:56.151Z,6.38
2023-04-09T04:12:56.173Z,6.36
2023-04-09T04:13:56.164Z,6.38
2023-04-09T04:14:56.123Z,6.48
2023-04-09T04:15:56.156Z,6.36
2023-04-09T04:16:56.149Z,6.39
2023-04-09T04:17:56.161Z,6.39
2023-04-09T04:18:56.085Z,6.45
2023-04-09T04:19:56.088Z,6.39
2023-04-09T04:20:56.073Z,6.45
2023-04-09T04:21:56.112Z,6.44
2023-04-09T04:22:56.119Z,6.38
2023-04-09T04:23:56.085Z,6.28
2023-04-09T04:24:56.043Z,6.38
2023-04-09T04:25:56.048Z,6.38
2023-04-09T04:26:56.035Z,6.36
2023-04-09T04:27:56.030Z,6.36
2023-04-09T04:28:56.036Z,6.49
2023-04-09T04:29:56.031Z,6.41
2023-04-09T04:30:56.008Z,6.48
2023-04-09T04:31:56.063Z,6.51
2023-04-09T04:32:56.012Z,6.54
2023-04-09T04:33:55.990Z,6.48
2023-04-09T04:34:55.981Z,6.45
2023-04-09T04:35:56.049Z,6.56
2023-04-09T04:36:55.960Z,6.56
2023-04-09T04:37:55.990Z,6.63
2023-04-09T04:38:55.965Z,6.56
2023-04-09T04:39:55.958Z,6.52
2023-04-09T04:40:55.942Z,6.60
2023-04-09T04:41:55.931Z,6.62
2023-04-09T04:42:55.925Z,6.63
2023-04-09T04:43:55.919Z,6.60
2023-04-09T04:44:55.962Z,6.66
2023-04-09T04:45:55.961Z,6.66
2023-04-09T04:46:55.923Z,6.64
2023-04-09T04:47:55.931Z,6.63
2023-04-09T04:48:55.881Z,6.62
2023-04-09T04:49:55.882Z,6.57
2023-04-09T04:50:55.878Z,6.57
2023-04-09T04:51:55.858Z,6.59
2023-04-09T04:52:55.871Z,6.63
2023-04-09T04:53:55.854Z,6.56
2023-04-09T04:54:55.863Z,6.62
2023-04-09T04:55:55.836Z,6.54
2023-04-09T04:56:55.833Z,6.60
2023-04-09T04:57:55.820Z,6.46
2023-04-09T04:58:55.824Z,6.63
2023-04-09T04:59:55.801Z,6.45
2023-04-09T05:00:55.834Z,6.46
2023-04-09T05:01:56.090Z,6.48
2023-04-09T05:02:55.913Z,6.49
2023-04-09T05:03:55.975Z,6.45
2023-04-09T05:04:55.782Z,6.52
2023-04-09T05:05:55.772Z,6.42
2023-04-09T05:06:55.743Z,6.44
2023-04-09T05:07:55.743Z,6.42
2023-04-09T05:08:55.752Z,6.41
2023-04-09T05:09:55.727Z,6.46
2023-04-09T05:10:55.737Z,6.46
2023-04-09T05:11:55.719Z,6.46
2023-04-09T05:12:55.718Z,6.41
2023-04-09T05:13:55.715Z,6.46
2023-04-09T05:14:55.739Z,6.33
2023-04-09T05:15:55.696Z,6.24
2023-04-09T05:16:55.787Z,6.35
2023-04-09T05:17:55.703Z,6.30
2023-04-09T05:18:55.656Z,6.26
2023-04-09T05:19:55.657Z,6.33
2023-04-09T05:20:55.652Z,6.33
2023-04-09T05:21:55.657Z,6.22
2023-04-09T05:22:55.653Z,6.28
2023-04-09T05:23:55.649Z,6.22
2023-04-09T05:24:55.627Z,6.28
2023-04-09T05:25:55.656Z,6.30
2023-04-09T05:26:55.605Z,6.24
2023-04-09T05:27:55.595Z,6.27
2023-04-09T05:28:55.607Z,6.17
2023-04-09T05:29:55.612Z,6.24
2023-04-09T05:30:55.593Z,6.14
2023-04-09T05:31:55.565Z,6.14
2023-04-09T05:32:55.593Z,6.26
2023-04-09T05:33:55.570Z,6.31
2023-04-09T05:34:55.555Z,6.36
2023-04-09T05:35:55.571Z,6.22
2023-04-09T05:36:55.551Z,6.28
2023-04-09T05:37:55.537Z,6.28
2023-04-09T05:38:55.843Z,6.31
2023-04-09T05:39:55.516Z,6.28
2023-04-09T05:40:55.516Z,6.30
2023-04-09T05:41:55.511Z,6.27
2023-04-09T05:42:55.495Z,6.31
2023-04-09T05:43:55.504Z,6.26
2023-04-09T05:44:55.503Z,6.27
2023-04-09T05:45:55.524Z,6.30
2023-04-09T05:46:55.472Z,6.17
2023-04-09T05:47:55.508Z,6.14
2023-04-09T05:48:55.454Z,6.19
2023-04-09T05:49:55.456Z,6.14
2023-04-09T05:50:56.061Z,6.22
2023-04-09T05:51:55.460Z,6.11
2023-04-09T05:52:55.474Z,6.26
2023-04-09T05:53:55.424Z,6.26
2023-04-09T05:54:55.417Z,6.24
2023-04-09T05:55:55.439Z,6.22
2023-04-09T05:56:55.400Z,6.26
2023-04-09T05:57:55.417Z,6.14
2023-04-09T05:58:55.405Z,6.22
2023-04-09T05:59:55.374Z,6.30
2023-04-09T06:00:55.402Z,6.26
2023-04-09T06:01:55.401Z,6.28
2023-04-09T06:02:55.395Z,6.31
2023-04-09T06:03:57.928Z,6.44
2023-04-09T06:04:55.477Z,6.42
2023-04-09T06:05:55.343Z,6.36
2023-04-09T06:06:55.354Z,6.38
2023-04-09T06:07:55.346Z,6.35
2023-04-09T06:08:55.338Z,6.39
2023-04-09T06:09:55.307Z,6.41
2023-04-09T06:10:55.307Z,6.38
2023-04-09T06:11:55.298Z,6.45
2023-04-09T06:12:55.302Z,6.38
2023-04-09T06:13:55.292Z,6.45
2023-04-09T06:14:55.276Z,6.45
2023-04-09T06:15:55.303Z,6.44
2023-04-09T06:16:55.270Z,6.45
2023-04-09T06:17:56.526Z,6.51
2023-04-09T06:18:55.242Z,6.44
2023-04-09T06:19:55.240Z,6.44
2023-04-09T06:20:55.253Z,6.51
2023-04-09T06:21:55.225Z,6.52
2023-04-09T06:22:55.264Z,6.59
2023-04-09T06:23:55.222Z,6.64
2023-04-09T06:24:55.212Z,6.63
2023-04-09T06:25:55.199Z,6.66
2023-04-09T06:26:55.192Z,6.64
2023-04-09T06:27:55.197Z,6.59
2023-04-09T06:28:55.193Z,6.57
2023-04-09T06:29:55.192Z,6.66
2023-04-09T06:30:55.213Z,6.72
2023-04-09T06:31:55.157Z,6.70
2023-04-09T06:32:55.627Z,6.70
2023-04-09T06:33:55.720Z,6.79
2023-04-09T06:34:55.137Z,6.74
2023-04-09T06:35:55.202Z,6.84
2023-04-09T06:36:55.131Z,6.87
2023-04-09T06:37:55.220Z,6.82
2023-04-09T06:38:55.122Z,6.81
2023-04-09T06:40:00.977Z,6.87
2023-04-09T06:40:55.104Z,6.81
2023-04-09T06:41:55.099Z,6.89
2023-04-09T06:42:55.093Z,6.82
2023-04-09T06:43:55.087Z,6.88
2023-04-09T06:44:55.078Z,7.05
2023-04-09T06:45:55.108Z,6.89
2023-04-09T06:46:55.117Z,6.99
2023-04-09T06:47:55.114Z,7.00
2023-04-09T06:48:55.043Z,7.07
2023-04-09T06:49:55.040Z,7.07
2023-04-09T06:50:55.040Z,7.06
2023-04-09T06:51:55.038Z,7.15
2023-04-09T06:52:55.013Z,7.13
2023-04-09T06:53:55.357Z,7.15
2023-04-09T06:54:55.014Z,7.15
2023-04-09T06:55:57.040Z,7.15
2023-04-09T06:56:54.991Z,7.24
2023-04-09T06:57:54.991Z,7.17
2023-04-09T06:58:54.979Z,7.23
2023-04-09T06:59:54.972Z,7.33
2023-04-09T07:00:55.017Z,7.32
2023-04-09T07:01:55.123Z,7.47
2023-04-09T07:02:55.253Z,7.54
2023-04-09T07:03:55.320Z,7.58
2023-04-09T07:04:54.959Z,7.67
2023-04-09T07:05:54.940Z,7.75
2023-04-09T07:06:54.932Z,7.82
2023-04-09T07:07:54.938Z,7.88
2023-04-09T07:08:55.342Z,7.83
2023-04-09T07:09:54.913Z,8.08
2023-04-09T07:10:54.925Z,7.93
2023-04-09T07:11:54.925Z,8.06
2023-04-09T07:12:54.913Z,7.97
2023-04-09T07:13:55.151Z,8.09
2023-04-09T07:14:54.898Z,8.19
2023-04-09T07:15:54.945Z,8.38
2023-04-09T07:16:54.900Z,8.37
2023-04-09T07:17:54.902Z,8.55
2023-04-09T07:18:54.917Z,8.60
2023-04-09T07:19:54.885Z,8.64
2023-04-09T07:20:54.874Z,8.78
2023-04-09T07:21:54.861Z,8.71
2023-04-09T07:23:02.051Z,8.88
2023-04-09T07:24:58.862Z,9.02
2023-04-09T07:25:58.842Z,9.10
2023-04-09T07:28:02.849Z,9.39
2023-04-09T07:29:02.848Z,9.51
2023-04-09T07:31:06.856Z,9.66
2023-04-09T07:32:06.820Z,9.61
2023-04-09T07:33:59.736Z,9.61
2023-04-09T07:34:59.775Z,9.61
2023-04-09T07:37:03.923Z,9.50
2023-04-09T07:38:03.722Z,9.47
2023-04-09T07:40:08.185Z,9.69
2023-04-09T07:41:07.706Z,9.66
2023-04-09T07:43:11.771Z,10.12
2023-04-09T07:44:11.716Z,10.19
2023-04-09T07:46:16.224Z,10.72
2023-04-09T07:47:15.730Z,10.78
2023-04-09T07:49:19.941Z,10.87
2023-04-09T07:50:19.705Z,10.92
2023-04-09T07:52:24.111Z,11.40
2023-04-09T07:53:23.719Z,11.54
2023-04-09T07:55:27.743Z,12.04
2023-04-09T07:56:27.733Z,12.12
2023-04-09T07:58:31.778Z,12.49
2023-04-09T07:59:31.817Z,12.57
2023-04-09T08:01:35.788Z,12.57
2023-04-09T08:02:35.828Z,12.60
2023-04-09T08:04:40.136Z,12.54
2023-04-09T08:05:39.755Z,12.53
2023-04-09T08:07:43.784Z,12.40
2023-04-09T08:08:43.798Z,12.35
2023-04-09T08:10:47.821Z,12.40
2023-04-09T08:11:47.798Z,12.50
2023-04-09T08:13:40.741Z,12.49
2023-04-09T08:14:40.738Z,12.53
2023-04-09T08:16:34.165Z,12.50
2023-04-09T08:17:33.913Z,12.57
2023-04-09T08:18:33.887Z,12.58
2023-04-09T08:19:33.892Z,12.76
2023-04-09T08:20:33.907Z,12.76
2023-04-09T08:21:33.898Z,12.75
2023-04-09T08:22:33.912Z,12.75
2023-04-09T08:23:33.924Z,12.79
2023-04-09T08:24:33.929Z,12.83
2023-04-09T08:25:33.945Z,12.85
2023-04-09T08:26:33.937Z,12.85
2023-04-09T08:27:33.949Z,12.72
2023-04-09T08:28:33.948Z,12.76
2023-04-09T08:29:33.945Z,12.57
2023-04-09T08:30:33.967Z,12.60
2023-04-09T08:31:34.028Z,12.58
2023-04-09T08:32:34.003Z,12.58
2023-04-09T08:33:33.959Z,12.47
2023-04-09T08:34:33.978Z,12.58
2023-04-09T08:35:33.988Z,12.61
2023-04-09T08:36:34.137Z,12.62
2023-04-09T08:37:34.002Z,12.70
2023-04-09T08:38:33.984Z,12.75
2023-04-09T08:39:33.987Z,12.83
2023-04-09T08:40:33.993Z,12.83
2023-04-09T08:41:33.996Z,12.75
2023-04-09T08:42:33.997Z,12.72
2023-04-09T08:43:52.620Z,12.70
2023-04-09T08:44:34.000Z,12.70
2023-04-09T08:45:34.020Z,12.85
2023-04-09T08:46:34.016Z,12.87
2023-04-09T08:47:34.075Z,12.95
2023-04-09T08:48:34.108Z,13.03
2023-04-09T08:49:34.020Z,13.01
2023-04-09T08:50:34.035Z,12.98
2023-04-09T08:51:34.037Z,12.82
2023-04-09T08:52:34.025Z,12.75
2023-04-09T08:53:34.007Z,12.78
2023-04-09T08:54:34.111Z,12.62
2023-04-09T08:55:34.016Z,12.58
2023-04-09T08:56:34.021Z,12.65
2023-04-09T08:57:34.021Z,12.60
2023-04-09T08:58:34.008Z,12.60
2023-04-09T08:59:34.006Z,12.62
2023-04-09T09:00:34.019Z,12.68
2023-04-09T09:01:34.156Z,12.73
2023-04-09T09:02:34.165Z,12.79
2023-04-09T09:03:34.054Z,12.87
2023-04-09T09:04:34.035Z,12.98
2023-04-09T09:05:34.005Z,12.98
2023-04-09T09:06:34.045Z,12.98
2023-04-09T09:07:34.003Z,12.93
2023-04-09T09:08:34.010Z,13.00
2023-04-09T09:09:34.004Z,13.03
2023-04-09T09:10:34.003Z,12.98
2023-04-09T09:11:33.996Z,12.98
2023-04-09T09:12:33.991Z,12.98
2023-04-09T09:13:33.986Z,12.95
2023-04-09T09:14:33.996Z,13.01
2023-04-09T09:15:33.988Z,13.03
2023-04-09T09:16:34.000Z,13.05
2023-04-09T09:17:33.993Z,13.19
2023-04-09T09:18:34.001Z,13.27
2023-04-09T09:19:34.054Z,13.22
2023-04-09T09:20:33.997Z,13.22
2023-04-09T09:21:34.053Z,13.25
2023-04-09T09:22:33.984Z,13.23
2023-04-09T09:23:33.975Z,13.35
2023-04-09T09:24:33.997Z,13.38
2023-04-09T09:25:33.980Z,13.31
2023-04-09T09:26:33.997Z,13.42
2023-04-09T09:27:33.966Z,13.41
2023-04-09T09:28:33.987Z,13.39
2023-04-09T09:29:33.968Z,13.35
2023-04-09T09:30:34.046Z,13.38
2023-04-09T09:31:34.000Z,13.44
2023-04-09T09:32:33.997Z,13.41
2023-04-09T09:33:33.973Z,13.53
2023-04-09T09:34:33.988Z,13.52
2023-04-09T09:35:33.966Z,13.41
2023-04-09T09:36:33.963Z,13.50
2023-04-09T09:37:33.961Z,13.44
2023-04-09T09:38:33.962Z,13.49
2023-04-09T09:39:33.946Z,13.52
2023-04-09T09:40:33.956Z,13.39
2023-04-09T09:41:33.950Z,13.50
2023-04-09T09:42:33.957Z,13.49
2023-04-09T09:43:33.960Z,13.46
2023-04-09T09:44:34.001Z,13.54
2023-04-09T09:45:33.959Z,13.52
2023-04-09T09:46:34.001Z,13.47
2023-04-09T09:47:33.967Z,13.47
2023-04-09T09:48:33.932Z,13.44
2023-04-09T09:49:33.936Z,13.38
2023-04-09T09:50:33.972Z,13.39
2023-04-09T09:51:33.952Z,13.39
2023-04-09T09:52:33.938Z,13.37
2023-04-09T09:53:33.931Z,13.31
2023-04-09T09:54:33.937Z,13.38
2023-04-09T09:55:33.955Z,13.46
2023-04-09T09:56:33.937Z,13.33
2023-04-09T09:57:33.934Z,13.41
2023-04-09T09:58:33.981Z,13.42
2023-04-09T09:59:33.918Z,13.44
2023-04-09T10:00:33.923Z,13.46
2023-04-09T10:01:33.988Z,13.41
2023-04-09T10:02:33.959Z,13.57
2023-04-09T10:03:33.947Z,13.42
2023-04-09T10:04:33.983Z,13.37
2023-04-09T10:05:33.890Z,13.39
2023-04-09T10:06:33.910Z,13.41
2023-04-09T10:07:33.899Z,13.37
2023-04-09T10:08:33.909Z,13.37
2023-04-09T10:09:33.922Z,13.31
2023-04-09T10:10:33.919Z,13.31
2023-04-09T10:11:33.918Z,13.22
2023-04-09T10:12:33.889Z,13.19
2023-04-09T10:13:33.876Z,13.23
2023-04-09T10:14:33.875Z,13.33
2023-04-09T10:15:33.966Z,13.38
2023-04-09T10:16:33.880Z,13.30
2023-04-09T10:17:33.937Z,13.31
2023-04-09T10:18:33.878Z,13.31
2023-04-09T10:19:33.876Z,13.22
2023-04-09T10:20:33.884Z,13.23
2023-04-09T10:21:33.857Z,13.12
2023-04-09T10:22:33.855Z,13.12
2023-04-09T10:23:33.867Z,13.01
2023-04-09T10:24:33.851Z,12.97
2023-04-09T10:25:33.874Z,12.86
2023-04-09T10:26:33.851Z,12.94
2023-04-09T10:27:33.867Z,12.87
2023-04-09T10:28:33.860Z,12.93
2023-04-09T10:29:33.846Z,12.93
2023-04-09T10:30:33.852Z,12.90
2023-04-09T10:31:33.859Z,12.82
2023-04-09T10:32:33.846Z,12.83
2023-04-09T10:33:33.867Z,12.83
2023-04-09T10:34:33.830Z,12.76
2023-04-09T10:35:33.843Z,12.62
2023-04-09T10:36:33.880Z,12.60
2023-04-09T10:37:33.823Z,12.55
2023-04-09T10:38:33.824Z,12.49
2023-04-09T10:39:33.818Z,12.50
2023-04-09T10:40:33.818Z,12.46
2023-04-09T10:41:33.815Z,12.42
2023-04-09T10:42:33.819Z,12.42
2023-04-09T10:43:33.824Z,12.35
2023-04-09T10:44:33.805Z,12.25
2023-04-09T10:45:33.798Z,12.12
2023-04-09T10:46:33.909Z,12.20
2023-04-09T10:47:33.815Z,12.15
2023-04-09T10:48:33.808Z,12.20
2023-04-09T10:49:33.781Z,12.13
2023-04-09T10:50:33.792Z,12.00
2023-04-09T10:51:33.796Z,12.04
2023-04-09T10:52:33.792Z,11.95
2023-04-09T10:53:33.771Z,11.94
2023-04-09T10:54:33.780Z,11.83
2023-04-09T10:55:33.779Z,11.81
2023-04-09T10:56:33.781Z,11.83
2023-04-09T10:57:33.765Z,11.81
2023-04-09T10:58:33.763Z,11.81
2023-04-09T10:59:33.761Z,11.84
2023-04-09T11:00:33.762Z,11.91
2023-04-09T11:01:33.790Z,11.99
2023-04-09T11:02:34.014Z,11.88
2023-04-09T11:03:33.794Z,11.80
2023-04-09T11:04:33.762Z,11.80
2023-04-09T11:05:33.805Z,11.84
2023-04-09T11:06:33.741Z,11.80
2023-04-09T11:07:33.739Z,11.84
2023-04-09T11:08:33.897Z,11.87
2023-04-09T11:09:33.772Z,11.86
2023-04-09T11:10:33.727Z,11.81
2023-04-09T11:11:33.738Z,11.87
2023-04-09T11:12:33.721Z,11.81
2023-04-09T11:13:33.716Z,11.86
2023-04-09T11:14:33.707Z,11.75
2023-04-09T11:15:33.719Z,11.72
2023-04-09T11:16:33.755Z,11.75
2023-04-09T11:17:33.731Z,11.77
2023-04-09T11:18:33.737Z,11.72
2023-04-09T11:19:33.701Z,11.69
2023-04-09T11:20:33.696Z,11.69
2023-04-09T11:21:34.944Z,11.75
2023-04-09T11:22:33.687Z,11.70
2023-04-09T11:23:33.722Z,11.70
2023-04-09T11:24:33.674Z,11.68
2023-04-09T11:25:33.691Z,11.65
2023-04-09T11:26:33.671Z,11.63
2023-04-09T11:27:33.678Z,11.77
2023-04-09T11:28:33.671Z,11.72
2023-04-09T11:29:33.658Z,11.69
2023-04-09T11:30:33.658Z,11.78
2023-04-09T11:31:33.714Z,11.65
2023-04-09T11:32:33.692Z,11.73
2023-04-09T11:33:33.644Z,11.69
2023-04-09T11:34:33.643Z,11.63
2023-04-09T11:35:33.662Z,11.69
2023-04-09T11:36:33.644Z,11.68
2023-04-09T11:37:33.667Z,11.78
2023-04-09T11:38:33.636Z,11.70
2023-04-09T11:39:33.692Z,11.69
2023-04-09T11:40:33.650Z,11.68
2023-04-09T11:41:33.676Z,11.68
2023-04-09T11:42:33.634Z,11.75
2023-04-09T11:43:33.610Z,11.69
2023-04-09T11:44:33.618Z,11.69
2023-04-09T11:45:33.652Z,11.75
2023-04-09T11:46:33.684Z,11.73
2023-04-09T11:47:33.645Z,11.69
2023-04-09T11:48:33.597Z,11.69
2023-04-09T11:49:33.689Z,11.69
2023-04-09T11:50:33.604Z,11.78
2023-04-09T11:51:33.603Z,11.75
2023-04-09T11:52:33.596Z,11.78
2023-04-09T11:53:33.581Z,11.75
2023-04-09T11:54:33.589Z,11.75
2023-04-09T11:55:33.595Z,11.77
2023-04-09T11:56:33.574Z,11.86
2023-04-09T11:57:33.582Z,11.84
2023-04-09T11:58:33.570Z,11.87
2023-04-09T11:59:33.568Z,11.97
2023-04-09T12:00:33.599Z,11.94
2023-04-09T12:01:33.598Z,12.00
2023-04-09T12:02:33.631Z,11.94
2023-04-09T12:03:34.064Z,11.91
2023-04-09T12:04:33.647Z,11.86
2023-04-09T12:05:33.546Z,11.95
2023-04-09T12:06:33.557Z,11.81
2023-04-09T12:07:33.552Z,11.80
2023-04-09T12:08:33.547Z,11.91
2023-04-09T12:09:33.537Z,11.91
2023-04-09T12:10:33.534Z,11.91
2023-04-09T12:11:33.529Z,11.95
2023-04-09T12:12:33.521Z,12.00
2023-04-09T12:13:33.514Z,11.91
2023-04-09T12:14:33.591Z,11.94
2023-04-09T12:15:33.564Z,12.04
2023-04-09T12:16:33.591Z,12.02
2023-04-09T12:17:33.557Z,12.00
2023-04-09T12:18:33.512Z,11.99
2023-04-09T12:19:33.539Z,12.06
2023-04-09T12:20:33.551Z,12.10
2023-04-09T12:21:33.494Z,12.20
2023-04-09T12:22:33.493Z,12.10
2023-04-09T12:23:33.537Z,12.18
2023-04-09T12:24:33.498Z,12.24
2023-04-09T12:25:33.494Z,12.24
2023-04-09T12:26:33.486Z,12.20
2023-04-09T12:27:33.938Z,12.21
2023-04-09T12:28:33.484Z,12.24
2023-04-09T12:29:33.479Z,12.32
2023-04-09T12:30:33.478Z,12.36
2023-04-09T12:31:33.498Z,12.37
2023-04-09T12:32:33.521Z,12.28
2023-04-09T12:33:33.455Z,12.37
2023-04-09T12:34:33.449Z,12.35
2023-04-09T12:35:33.486Z,12.28
2023-04-09T12:36:33.449Z,12.28
2023-04-09T12:37:33.468Z,12.36
2023-04-09T12:38:33.452Z,12.36
2023-04-09T12:39:34.384Z,12.29
2023-04-09T12:40:33.462Z,12.37
2023-04-09T12:41:33.432Z,12.31
2023-04-09T12:42:33.432Z,12.29
2023-04-09T12:43:33.431Z,12.32
2023-04-09T12:44:33.431Z,12.35
2023-04-09T12:45:33.441Z,12.35
2023-04-09T12:46:33.498Z,12.35
2023-04-09T12:47:33.445Z,12.37
2023-04-09T12:48:33.430Z,12.46
2023-04-09T12:49:33.437Z,12.46
2023-04-09T12:50:33.399Z,12.50
2023-04-09T12:51:33.396Z,12.47
2023-04-09T12:52:33.395Z,12.53
2023-04-09T12:53:33.399Z,12.53
2023-04-09T12:54:33.382Z,12.53
2023-04-09T12:55:33.413Z,12.49
2023-04-09T12:56:33.402Z,12.55
2023-04-09T12:57:33.394Z,12.54
2023-04-09T12:58:33.404Z,12.55
2023-04-09T12:59:33.378Z,12.47
2023-04-09T13:00:33.419Z,12.55
2023-04-09T13:01:33.683Z,12.55
2023-04-09T13:02:33.510Z,12.53
2023-04-09T13:03:33.527Z,12.57
2023-04-09T13:04:33.516Z,12.54
2023-04-09T13:05:33.362Z,12.55
2023-04-09T13:06:33.351Z,12.55
2023-04-09T13:07:33.362Z,12.58
2023-04-09T13:08:33.381Z,12.68
2023-04-09T13:09:33.351Z,12.60
2023-04-09T13:10:33.341Z,12.73
2023-04-09T13:11:33.356Z,12.76
2023-04-09T13:12:33.337Z,12.73
2023-04-09T13:13:33.347Z,12.75
2023-04-09T13:14:33.334Z,12.73
2023-04-09T13:15:33.338Z,12.78
2023-04-09T13:16:33.387Z,12.90
2023-04-09T13:17:33.361Z,12.90
2023-04-09T13:18:33.338Z,12.93
2023-04-09T13:19:33.325Z,13.03
2023-04-09T13:20:33.358Z,12.98
2023-04-09T13:21:33.333Z,13.01
2023-04-09T13:22:33.333Z,13.01
2023-04-09T13:23:33.331Z,13.03
2023-04-09T13:24:33.308Z,12.97
2023-04-09T13:25:33.344Z,13.03
2023-04-09T13:26:33.315Z,13.00
2023-04-09T13:27:33.305Z,12.95
2023-04-09T13:28:33.315Z,13.00